createdAt,value
2019-01-25T00:00:15.038Z,24.57
2019-01-25T00:02:45.178Z,24.87
2019-01-25T00:05:13.810Z,25.30
2019-01-25T00:07:42.282Z,24.73
2019-01-25T00:10:11.342Z,25.57
2019-01-25T00:12:39.832Z,25.17
2019-01-25T00:15:11.195Z,26.20
2019-01-25T00:17:39.726Z,25.67
2019-01-25T00:20:11.265Z,26.07
2019-01-25T00:22:39.780Z,26.20
2019-01-25T00:25:09.636Z,26.43
2019-01-25T00:27:38.105Z,24.37
2019-01-25T00:30:14.986Z,25.87
2019-01-25T00:32:43.454Z,24.10
2019-01-25T00:35:12.120Z,26.70
2019-01-25T00:37:40.587Z,25.37
2019-01-25T00:40:14.833Z,25.20
2019-01-25T00:42:43.358Z,24.37
2019-01-25T00:45:12.693Z,24.10
2019-01-25T00:47:41.160Z,21.53
2019-01-25T00:50:15.636Z,26.07
2019-01-25T00:52:44.452Z,25.23
2019-01-25T00:55:13.199Z,24.53
2019-01-25T00:57:41.684Z,25.63
2019-01-25T01:00:32.336Z,25.17
2019-01-25T01:03:00.879Z,26.33
2019-01-25T01:05:29.508Z,23.23
2019-01-25T01:07:57.987Z,24.37
2019-01-25T01:10:26.495Z,26.27
2019-01-25T01:12:54.979Z,24.70
2019-01-25T01:15:23.512Z,23.90
2019-01-25T01:17:52.019Z,24.27
2019-01-25T01:20:21.247Z,24.40
2019-01-25T01:22:49.968Z,25.57
2019-01-25T01:25:19.021Z,23.90
2019-01-25T01:27:47.635Z,23.00
2019-01-25T01:30:21.450Z,22.00
2019-01-25T01:32:50.359Z,22.43
2019-01-25T01:35:18.851Z,22.30
2019-01-25T01:37:47.890Z,22.87
2019-01-25T01:40:22.143Z,22.73
2019-01-25T01:42:48.951Z,23.97
2019-01-25T01:45:18.088Z,23.97
2019-01-25T01:47:46.737Z,22.27
2019-01-25T01:50:17.072Z,22.33
2019-01-25T01:52:46.176Z,21.60
2019-01-25T01:55:14.993Z,25.77
2019-01-25T01:57:43.486Z,25.10
2019-01-25T02:00:15.373Z,23.17
2019-01-25T02:02:43.867Z,23.30
2019-01-25T02:05:12.444Z,22.73
2019-01-25T02:07:40.977Z,23.97
2019-01-25T02:10:12.584Z,22.20
2019-01-25T02:12:41.086Z,22.97
2019-01-25T02:15:12.442Z,22.70
2019-01-25T02:17:41.080Z,22.50
2019-01-25T02:20:12.892Z,24.07
2019-01-25T02:22:41.392Z,24.00
2019-01-25T02:25:10.002Z,23.47
2019-01-25T02:27:38.504Z,24.73
2019-01-25T02:30:10.033Z,21.50
2019-01-25T02:32:38.541Z,24.90
2019-01-25T02:35:08.555Z,21.80
2019-01-25T02:37:37.113Z,22.57
2019-01-25T02:40:08.663Z,24.13
2019-01-25T02:42:37.157Z,24.53
2019-01-25T02:45:08.970Z,22.37
2019-01-25T02:47:37.474Z,23.37
2019-01-25T02:50:09.027Z,22.00
2019-01-25T02:52:37.522Z,23.47
2019-01-25T02:55:08.243Z,23.77
2019-01-25T02:57:36.735Z,22.67
2019-01-25T03:00:14.000Z,23.03
2019-01-25T03:02:42.508Z,24.00
2019-01-25T03:05:11.508Z,23.63
2019-01-25T03:07:40.018Z,23.53
2019-01-25T03:10:11.837Z,23.67
2019-01-25T03:12:40.344Z,24.03
2019-01-25T03:15:12.092Z,23.90
2019-01-25T03:17:40.661Z,23.67
2019-01-25T03:20:11.774Z,24.53
2019-01-25T03:22:40.285Z,25.03
2019-01-25T03:25:12.399Z,22.90
2019-01-25T03:27:40.901Z,24.50
2019-01-25T03:30:15.678Z,23.97
2019-01-25T03:32:44.198Z,23.83
2019-01-25T03:35:14.577Z,21.70
2019-01-25T03:37:43.147Z,22.20
2019-01-25T03:40:20.252Z,23.03
2019-01-25T03:42:48.988Z,25.20
2019-01-25T03:45:18.199Z,23.33
2019-01-25T03:47:46.759Z,24.63
2019-01-25T03:50:18.351Z,25.30
2019-01-25T03:52:46.910Z,25.20
2019-01-25T03:55:16.322Z,23.63
2019-01-25T03:57:44.885Z,23.00
2019-01-25T04:00:18.681Z,24.83
2019-01-25T04:02:47.233Z,24.90
2019-01-25T04:05:16.741Z,24.07
2019-01-25T04:07:45.511Z,23.60
2019-01-25T04:10:25.131Z,26.00
2019-01-25T04:12:53.768Z,23.13
2019-01-25T04:15:24.780Z,23.80
2019-01-25T04:17:53.358Z,24.13
2019-01-25T04:20:23.294Z,23.10
2019-01-25T04:22:52.109Z,24.27
2019-01-25T04:25:22.524Z,23.50
2019-01-25T04:27:51.265Z,25.20
2019-01-25T04:30:24.998Z,23.20
2019-01-25T04:32:53.492Z,24.23
2019-01-25T04:35:21.966Z,23.90
2019-01-25T04:37:50.449Z,27.00
2019-01-25T04:40:19.552Z,24.63
2019-01-25T04:42:48.336Z,26.77
2019-01-25T04:45:21.585Z,25.93
2019-01-25T04:47:50.081Z,26.43
2019-01-25T04:50:23.768Z,24.87
2019-01-25T04:52:53.211Z,25.60
2019-01-25T04:55:24.155Z,26.37
2019-01-25T04:57:52.654Z,26.23
2019-01-25T05:00:24.406Z,26.97
2019-01-25T05:02:55.604Z,25.67
2019-01-25T05:05:24.523Z,26.40
2019-01-25T05:07:57.728Z,25.07
2019-01-25T05:10:26.194Z,25.90
2019-01-25T05:12:54.759Z,25.47
2019-01-25T05:15:23.239Z,25.13
2019-01-25T05:17:54.082Z,26.53
2019-01-25T05:20:22.632Z,27.03
2019-01-25T05:22:56.412Z,26.70
2019-01-25T05:25:26.328Z,25.87
2019-01-25T05:27:54.969Z,26.40
2019-01-25T05:30:24.299Z,25.03
2019-01-25T05:32:52.785Z,25.37
2019-01-25T05:35:21.263Z,25.77
2019-01-25T05:37:49.757Z,25.33
2019-01-25T05:40:26.349Z,25.93
2019-01-25T05:42:54.953Z,25.90
2019-01-25T05:45:23.462Z,25.27
2019-01-25T05:47:52.021Z,26.37
2019-01-25T05:50:20.488Z,26.57
2019-01-25T05:52:48.974Z,25.77
2019-01-25T05:55:20.019Z,24.37
2019-01-25T05:57:48.850Z,26.77
2019-01-25T06:00:21.750Z,26.17
2019-01-25T06:02:50.241Z,25.80
2019-01-25T06:05:18.785Z,25.67
2019-01-25T06:07:47.266Z,25.13
2019-01-25T06:10:15.747Z,24.87
2019-01-25T06:12:44.229Z,25.13
2019-01-25T06:15:13.744Z,27.77
2019-01-25T06:17:42.248Z,26.70
2019-01-25T06:20:12.487Z,27.67
2019-01-25T06:22:40.992Z,27.23
2019-01-25T06:25:09.607Z,27.23
2019-01-25T06:27:40.007Z,26.13
2019-01-25T06:30:13.942Z,25.93
2019-01-25T06:32:42.499Z,28.00
2019-01-25T06:35:12.308Z,25.80
2019-01-25T06:37:40.825Z,27.13
2019-01-25T06:40:11.416Z,27.03
2019-01-25T06:42:39.972Z,27.10
2019-01-25T06:45:10.390Z,28.70
2019-01-25T06:47:39.146Z,26.47
2019-01-25T06:50:12.480Z,26.70
2019-01-25T06:52:40.976Z,25.20
2019-01-25T06:55:09.584Z,25.60
2019-01-25T06:57:42.126Z,25.80
2019-01-25T07:00:19.504Z,26.50
2019-01-25T07:02:48.062Z,25.43
2019-01-25T07:05:16.542Z,27.37
2019-01-25T07:07:46.605Z,25.43
2019-01-25T07:10:20.268Z,25.53
2019-01-25T07:12:48.837Z,24.20
2019-01-25T07:15:18.964Z,24.13
2019-01-25T07:17:47.441Z,24.93
2019-01-25T07:20:17.468Z,25.40
2019-01-25T07:22:45.941Z,23.97
2019-01-25T07:25:16.595Z,25.13
2019-01-25T07:27:45.073Z,25.83
2019-01-25T07:30:15.572Z,24.23
2019-01-25T07:32:44.134Z,25.20
2019-01-25T07:35:13.260Z,23.17
2019-01-25T07:37:41.736Z,24.17
2019-01-25T07:40:11.408Z,25.03
2019-01-25T07:42:39.954Z,24.00
2019-01-25T07:45:13.473Z,23.67
2019-01-25T07:47:41.992Z,21.13
2019-01-25T07:50:13.745Z,24.53
2019-01-25T07:52:42.277Z,25.30
2019-01-25T07:55:12.536Z,24.53
2019-01-25T07:57:41.150Z,24.40
2019-01-25T08:00:12.362Z,22.90
2019-01-25T08:02:40.843Z,22.57
2019-01-25T08:05:10.711Z,23.67
2019-01-25T08:07:39.510Z,24.23
2019-01-25T08:10:16.566Z,24.47
2019-01-25T08:12:45.064Z,23.27
2019-01-25T08:15:24.903Z,24.23
2019-01-25T08:17:53.465Z,24.93
2019-01-25T08:20:21.937Z,25.53
2019-01-25T08:22:50.486Z,25.00
2019-01-25T08:25:18.989Z,25.03
2019-01-25T08:27:47.636Z,25.63
2019-01-25T08:30:19.145Z,24.37
2019-01-25T08:32:47.618Z,25.17
2019-01-25T08:35:17.197Z,25.90
2019-01-25T08:37:45.772Z,25.23
2019-01-25T08:40:16.123Z,24.90
2019-01-25T08:42:44.783Z,23.77
2019-01-25T08:45:15.548Z,24.23
2019-01-25T08:47:44.264Z,24.43
2019-01-25T08:50:15.925Z,24.33
2019-01-25T08:52:44.373Z,24.23
2019-01-25T08:55:13.043Z,23.73
2019-01-25T08:57:41.581Z,23.67
2019-01-25T09:00:13.294Z,22.83
2019-01-25T09:02:41.848Z,22.83
2019-01-25T09:05:11.529Z,22.20
2019-01-25T09:07:40.208Z,23.53
2019-01-25T09:10:14.432Z,21.47
2019-01-25T09:12:42.908Z,22.83
2019-01-25T09:15:14.542Z,23.67
2019-01-25T09:17:43.082Z,21.57
2019-01-25T09:20:15.027Z,21.13
2019-01-25T09:22:43.493Z,21.40
2019-01-25T09:25:12.330Z,21.80
2019-01-25T09:27:40.791Z,22.17
2019-01-25T09:30:12.310Z,22.13
2019-01-25T09:32:40.829Z,21.33
2019-01-25T09:35:09.480Z,20.33
2019-01-25T09:37:37.961Z,21.43
2019-01-25T09:40:12.571Z,20.87
2019-01-25T09:42:41.039Z,20.33
2019-01-25T09:45:11.770Z,19.73
2019-01-25T09:47:40.386Z,19.63
2019-01-25T09:50:22.628Z,20.67
2019-01-25T09:52:51.111Z,18.53
2019-01-25T09:55:24.288Z,20.80
2019-01-25T09:57:53.282Z,19.70
2019-01-25T10:00:41.266Z,19.80
2019-01-25T10:03:09.749Z,19.03
2019-01-25T10:05:38.244Z,20.47
2019-01-25T10:08:06.717Z,20.57
2019-01-25T10:10:35.223Z,20.43
2019-01-25T10:13:03.704Z,19.77
2019-01-25T10:15:32.270Z,20.33
2019-01-25T10:18:00.753Z,20.07
2019-01-25T10:20:29.253Z,22.03
2019-01-25T10:22:57.799Z,20.53
2019-01-25T10:25:26.294Z,20.40
2019-01-25T10:27:54.765Z,21.23
2019-01-25T10:30:29.639Z,19.83
2019-01-25T10:32:58.116Z,17.77
2019-01-25T10:35:26.696Z,18.27
2019-01-25T10:37:55.152Z,18.87
2019-01-25T10:40:24.094Z,18.87
2019-01-25T10:42:53.719Z,17.73
2019-01-25T10:45:37.281Z,20.73
2019-01-25T10:48:06.796Z,18.40
2019-01-25T10:50:35.304Z,18.63
2019-01-25T10:53:04.540Z,18.57
2019-01-25T10:55:33.263Z,18.13
2019-01-25T10:58:01.741Z,17.53
2019-01-25T11:00:30.229Z,17.67
2019-01-25T11:02:58.752Z,16.70
2019-01-25T11:05:28.736Z,17.53
2019-01-25T11:07:57.280Z,18.07
2019-01-25T11:10:25.771Z,17.77
2019-01-25T11:13:00.821Z,16.40
2019-01-25T11:15:26.268Z,15.60
2019-01-25T11:17:54.751Z,15.57
2019-01-25T11:20:25.824Z,16.93
2019-01-25T11:22:54.634Z,19.47
2019-01-25T11:25:31.600Z,16.33
2019-01-25T11:28:00.078Z,16.50
2019-01-25T11:30:28.659Z,16.97
2019-01-25T11:32:57.139Z,16.97
2019-01-25T11:35:26.409Z,17.67
2019-01-25T11:37:54.889Z,15.50
2019-01-25T11:40:27.306Z,16.80
2019-01-25T11:42:55.777Z,17.50
2019-01-25T11:45:24.301Z,15.83
2019-01-25T11:47:53.112Z,17.23
2019-01-25T11:50:22.222Z,18.53
2019-01-25T11:52:50.660Z,17.67
2019-01-25T11:55:19.688Z,17.93
2019-01-25T11:57:48.239Z,18.40
2019-01-25T12:00:19.554Z,17.83
2019-01-25T12:02:48.191Z,17.27
2019-01-25T12:05:19.208Z,18.97
2019-01-25T12:07:48.011Z,20.60
2019-01-25T12:10:19.651Z,19.50
2019-01-25T12:12:48.142Z,17.93
2019-01-25T12:15:17.702Z,19.43
2019-01-25T12:17:46.178Z,20.30
2019-01-25T12:20:17.736Z,18.47
2019-01-25T12:22:46.202Z,17.53
2019-01-25T12:25:14.700Z,18.10
2019-01-25T12:27:43.170Z,18.00
2019-01-25T12:30:17.439Z,16.67
2019-01-25T12:32:45.917Z,16.10
2019-01-25T12:35:14.407Z,18.10
2019-01-25T12:37:42.885Z,17.37
2019-01-25T12:40:19.977Z,19.17
2019-01-25T12:42:48.445Z,18.63
2019-01-25T12:45:25.465Z,19.10
2019-01-25T12:47:53.947Z,19.83
2019-01-25T12:50:25.472Z,18.63
2019-01-25T12:52:53.968Z,17.80
2019-01-25T12:55:23.916Z,19.27
2019-01-25T12:57:52.488Z,19.47
2019-01-25T13:00:24.405Z,19.40
2019-01-25T13:02:53.608Z,20.60
2019-01-25T13:05:23.385Z,19.63
2019-01-25T13:07:51.865Z,18.93
2019-01-25T13:10:23.445Z,19.53
2019-01-25T13:12:51.977Z,20.93
2019-01-25T13:15:20.558Z,20.50
2019-01-25T13:17:49.146Z,20.27
2019-01-25T13:20:22.744Z,20.17
2019-01-25T13:22:51.467Z,21.17
2019-01-25T13:25:20.013Z,21.60
2019-01-25T13:27:48.604Z,19.57
2019-01-25T13:30:22.538Z,20.80
2019-01-25T13:32:51.023Z,21.13
2019-01-25T13:35:19.575Z,21.53
2019-01-25T13:37:48.156Z,22.57
2019-01-25T13:40:21.861Z,20.20
2019-01-25T13:42:50.522Z,23.30
2019-01-25T13:45:20.426Z,22.60
2019-01-25T13:47:49.258Z,22.23
2019-01-25T13:50:23.647Z,24.10
2019-01-25T13:52:52.317Z,23.23
2019-01-25T13:55:21.336Z,22.30
2019-01-25T13:57:49.833Z,22.50
2019-01-25T14:00:26.668Z,23.47
2019-01-25T14:02:55.164Z,22.63
2019-01-25T14:05:24.185Z,24.07
2019-01-25T14:07:52.758Z,24.60
2019-01-25T14:10:35.542Z,21.87
2019-01-25T14:13:04.968Z,23.73
2019-01-25T14:15:33.585Z,22.83
2019-01-25T14:18:02.085Z,22.37
2019-01-25T14:20:32.497Z,21.53
2019-01-25T14:23:01.253Z,22.93
2019-01-25T14:25:30.483Z,22.13
2019-01-25T14:27:58.962Z,22.57
2019-01-25T14:30:30.346Z,22.47
2019-01-25T14:32:58.919Z,21.77
2019-01-25T14:35:27.469Z,20.93
2019-01-25T14:37:56.021Z,21.53
2019-01-25T14:40:24.503Z,20.77
2019-01-25T14:42:53.017Z,22.33
2019-01-25T14:45:21.482Z,21.40
2019-01-25T14:47:50.158Z,21.70
2019-01-25T14:50:21.166Z,21.30
2019-01-25T14:52:49.733Z,22.17
2019-01-25T14:55:18.197Z,22.63
2019-01-25T14:57:46.701Z,22.17
2019-01-25T15:00:16.210Z,22.13
2019-01-25T15:02:44.777Z,24.17
2019-01-25T15:05:16.088Z,23.07
2019-01-25T15:07:44.749Z,23.87
2019-01-25T15:10:16.203Z,23.43
2019-01-25T15:12:45.042Z,23.67
2019-01-25T15:15:14.951Z,25.50
2019-01-25T15:17:43.467Z,23.83
2019-01-25T15:20:15.316Z,24.10
2019-01-25T15:22:43.809Z,23.77
2019-01-25T15:25:12.439Z,24.33
2019-01-25T15:27:41.019Z,24.40
2019-01-25T15:30:15.599Z,24.13
2019-01-25T15:32:44.239Z,24.40
2019-01-25T15:35:15.161Z,23.90
2019-01-25T15:37:43.745Z,23.70
2019-01-25T15:40:14.961Z,23.40
2019-01-25T15:42:43.622Z,25.23
2019-01-25T15:45:14.806Z,22.67
2019-01-25T15:47:43.300Z,23.77
2019-01-25T15:50:18.072Z,23.73
2019-01-25T15:52:46.563Z,24.03
2019-01-25T15:55:15.371Z,22.80
2019-01-25T15:57:43.902Z,23.17
2019-01-25T16:00:14.521Z,31.83
2019-01-25T16:02:43.035Z,23.27
2019-01-25T16:05:14.142Z,23.83
2019-01-25T16:07:42.717Z,22.03
2019-01-25T16:10:14.425Z,23.33
2019-01-25T16:12:42.979Z,22.53
2019-01-25T16:15:14.441Z,24.33
2019-01-25T16:17:43.010Z,23.83
2019-01-25T16:20:13.937Z,22.00
2019-01-25T16:22:42.395Z,28.33
2019-01-25T16:25:16.393Z,27.90
2019-01-25T16:27:44.895Z,24.27
2019-01-25T16:30:34.152Z,24.67
2019-01-25T16:33:02.715Z,23.40
2019-01-25T16:35:31.188Z,24.47
2019-01-25T16:37:59.846Z,23.00
2019-01-25T16:40:30.168Z,25.50
2019-01-25T16:42:58.650Z,24.50
2019-01-25T16:45:32.557Z,23.93
2019-01-25T16:48:01.053Z,24.40
2019-01-25T16:50:29.607Z,24.97
2019-01-25T16:52:58.104Z,25.97
2019-01-25T16:55:26.583Z,23.57
2019-01-25T16:57:55.110Z,24.60
2019-01-25T17:00:26.429Z,23.27
2019-01-25T17:02:54.933Z,22.97
2019-01-25T17:05:23.786Z,23.83
2019-01-25T17:07:52.230Z,23.27
2019-01-25T17:10:20.796Z,26.23
2019-01-25T17:12:49.277Z,24.63
2019-01-25T17:15:18.123Z,25.33
2019-01-25T17:17:46.619Z,27.20
2019-01-25T17:20:21.350Z,28.57
2019-01-25T17:22:48.200Z,25.77
2019-01-25T17:25:16.690Z,27.97
2019-01-25T17:27:45.233Z,26.93
2019-01-25T17:30:34.617Z,28.92
2019-01-25T17:33:03.080Z,26.23
2019-01-25T17:35:32.426Z,25.13
2019-01-25T17:38:01.225Z,26.53
2019-01-25T17:40:32.600Z,26.53
2019-01-25T17:43:01.077Z,26.13
2019-01-25T17:45:29.563Z,26.53
2019-01-25T17:47:58.112Z,27.93
2019-01-25T17:50:26.669Z,25.53
2019-01-25T17:52:55.163Z,26.23
2019-01-25T17:55:23.927Z,26.73
2019-01-25T17:57:52.471Z,27.17
2019-01-25T18:00:30.639Z,27.90
2019-01-25T18:02:59.189Z,26.93
2019-01-25T18:05:27.758Z,27.13
2019-01-25T18:07:56.243Z,26.97
2019-01-25T18:10:25.983Z,26.67
2019-01-25T18:12:54.457Z,25.77
2019-01-25T18:15:22.955Z,25.77
2019-01-25T18:17:51.461Z,28.17
2019-01-25T18:20:21.965Z,27.63
2019-01-25T18:22:50.546Z,28.57
2019-01-25T18:25:39.991Z,31.73
2019-01-25T18:28:26.273Z,32.20
2019-01-25T18:30:58.143Z,37.20
2019-01-25T18:33:26.698Z,28.67
2019-01-25T18:35:55.195Z,28.40
2019-01-25T18:38:23.660Z,28.20
2019-01-25T18:40:52.170Z,27.17
2019-01-25T18:43:20.654Z,27.37
2019-01-25T18:45:49.136Z,26.50
2019-01-25T18:48:17.761Z,27.50
2019-01-25T18:50:46.241Z,29.10
2019-01-25T18:53:14.718Z,27.70
2019-01-25T18:55:43.209Z,29.27
2019-01-25T18:58:11.679Z,27.23
2019-01-25T19:00:40.195Z,27.33
2019-01-25T19:03:08.678Z,28.37
2019-01-25T19:05:37.167Z,29.40
2019-01-25T19:08:05.768Z,27.07
2019-01-25T19:10:34.537Z,28.90
2019-01-25T19:13:03.025Z,28.30
2019-01-25T19:15:32.368Z,27.77
2019-01-25T19:18:00.869Z,28.10
2019-01-25T19:20:29.440Z,27.60
2019-01-25T19:22:57.901Z,31.57
2019-01-25T19:25:26.408Z,29.53
2019-01-25T19:27:54.895Z,31.73
2019-01-25T19:30:32.290Z,26.00
2019-01-25T19:33:00.841Z,25.13
2019-01-25T19:35:29.440Z,24.03
2019-01-25T19:37:58.244Z,22.83
2019-01-25T19:40:29.911Z,24.87
2019-01-25T19:42:58.450Z,28.60
2019-01-25T19:45:26.967Z,23.77
2019-01-25T19:47:55.515Z,22.63
2019-01-25T19:50:24.150Z,20.50
2019-01-25T19:52:52.780Z,20.77
2019-01-25T19:55:31.748Z,20.10
2019-01-25T19:58:02.055Z,19.07
2019-01-25T20:00:36.386Z,20.77
2019-01-25T20:03:05.290Z,19.83
2019-01-25T20:05:33.794Z,33.50
2019-01-25T20:08:02.414Z,24.17
2019-01-25T20:10:30.965Z,21.57
2019-01-25T20:12:59.453Z,18.83
2019-01-25T20:15:28.475Z,19.77
2019-01-25T20:17:57.103Z,19.73
2019-01-25T20:20:30.832Z,19.37
2019-01-25T20:22:59.486Z,19.77
2019-01-25T20:25:28.108Z,19.27
2019-01-25T20:27:56.689Z,18.60
2019-01-25T20:30:28.210Z,18.97
2019-01-25T20:32:56.829Z,18.33
2019-01-25T20:35:30.729Z,19.17
2019-01-25T20:37:59.220Z,23.00
2019-01-25T20:40:27.759Z,20.50
2019-01-25T20:42:56.328Z,17.23
2019-01-25T20:45:27.648Z,18.33
2019-01-25T20:47:56.140Z,18.47
2019-01-25T20:50:29.948Z,18.93
2019-01-25T20:52:58.460Z,18.17
2019-01-25T20:55:27.081Z,19.77
2019-01-25T20:57:56.625Z,17.20
2019-01-25T21:00:33.130Z,35.23
2019-01-25T21:03:01.967Z,29.80
2019-01-25T21:05:30.987Z,23.83
2019-01-25T21:07:59.548Z,26.07
2019-01-25T21:10:28.169Z,18.77
2019-01-25T21:12:56.793Z,17.67
2019-01-25T21:15:34.746Z,17.87
2019-01-25T21:17:57.888Z,16.50
2019-01-25T21:20:37.717Z,16.83
2019-01-25T21:23:06.355Z,17.40
2019-01-25T21:25:34.839Z,17.70
2019-01-25T21:28:04.079Z,17.70
2019-01-25T21:30:34.702Z,16.97
2019-01-25T21:33:04.156Z,17.87
2019-01-25T21:35:32.692Z,16.93
2019-01-25T21:38:01.194Z,17.27
2019-01-25T21:40:31.700Z,17.67
2019-01-25T21:43:00.206Z,17.60
2019-01-25T21:45:31.120Z,17.83
2019-01-25T21:48:00.052Z,16.97
2019-01-25T21:50:31.362Z,17.13
2019-01-25T21:52:59.870Z,17.13
2019-01-25T21:55:28.591Z,16.87
2019-01-25T21:57:57.085Z,17.37
2019-01-25T22:00:30.897Z,17.87
2019-01-25T22:02:59.391Z,19.07
2019-01-25T22:05:28.110Z,16.43
2019-01-25T22:07:56.787Z,17.40
2019-01-25T22:10:33.794Z,17.40
2019-01-25T22:13:02.289Z,19.10
2019-01-25T22:15:30.761Z,18.13
2019-01-25T22:17:59.255Z,17.63
2019-01-25T22:20:29.377Z,17.20
2019-01-25T22:22:58.042Z,17.50
2019-01-25T22:25:26.593Z,18.70
2019-01-25T22:27:56.036Z,16.87
2019-01-25T22:30:26.838Z,17.60
2019-01-25T22:32:55.506Z,16.67
2019-01-25T22:35:24.410Z,17.77
2019-01-25T22:37:53.247Z,18.50
2019-01-25T22:40:26.924Z,16.63
2019-01-25T22:42:55.761Z,19.07
2019-01-25T22:45:46.396Z,17.07
2019-01-25T22:48:14.899Z,16.50
2019-01-25T22:50:43.541Z,17.77
2019-01-25T22:53:12.045Z,17.53
2019-01-25T22:55:40.525Z,16.60
2019-01-25T22:58:09.092Z,18.17
2019-01-25T23:00:50.985Z,18.12
2019-01-25T23:03:34.579Z,17.53
2019-01-25T23:06:15.114Z,17.83
2019-01-25T23:08:43.624Z,16.90
2019-01-25T23:11:12.096Z,17.60
2019-01-25T23:13:40.585Z,18.97
2019-01-25T23:16:09.133Z,19.30
2019-01-25T23:18:37.622Z,19.47
2019-01-25T23:21:06.101Z,18.43
2019-01-25T23:23:34.605Z,18.10
2019-01-25T23:26:03.084Z,20.70
2019-01-25T23:28:31.578Z,20.77
2019-01-25T23:31:00.056Z,20.87
2019-01-25T23:33:28.557Z,21.83
2019-01-25T23:35:57.090Z,22.23
2019-01-25T23:38:25.623Z,21.70
2019-01-25T23:40:54.106Z,22.37
2019-01-25T23:43:22.603Z,20.90
2019-01-25T23:45:51.083Z,20.60
2019-01-25T23:48:19.578Z,20.83
2019-01-25T23:50:48.053Z,19.93
2019-01-25T23:53:16.536Z,22.10
2019-01-25T23:55:45.018Z,22.03
2019-01-25T23:58:13.525Z,21.87
